createdAt,value
2019-02-26T00:00:53.739Z,68.11
2019-02-26T00:01:55.084Z,68.18
2019-02-26T00:02:55.390Z,68.2
2019-02-26T00:03:44.647Z,68.29
2019-02-26T00:04:44.723Z,68.99
2019-02-26T00:05:54.794Z,69.09
2019-02-26T00:06:54.145Z,69.25
2019-02-26T00:07:55.931Z,69.7
2019-02-26T00:08:55.916Z,70.3
2019-02-26T00:09:44.987Z,70.21
2019-02-26T00:10:46.169Z,70.95
2019-02-26T00:11:46.460Z,70.33
2019-02-26T00:12:44.942Z,69.91
2019-02-26T00:13:44.739Z,69.24
2019-02-26T00:14:54.276Z,69.91
2019-02-26T00:15:48.561Z,69.37
2019-02-26T00:16:51.088Z,69.61
2019-02-26T00:17:52.989Z,69.3
2019-02-26T00:18:45.510Z,69.19
2019-02-26T00:19:45.379Z,68.98
2019-02-26T00:20:44.676Z,69.32
2019-02-26T00:21:52.357Z,68.04
2019-02-26T00:22:44.866Z,69.18
2019-02-26T00:23:52.658Z,68.73
2019-02-26T00:24:46.794Z,67.79
2019-02-26T00:25:44.925Z,68.74
2019-02-26T00:26:45.363Z,68.81
2019-02-26T00:27:54.005Z,68.56
2019-02-26T00:28:45.895Z,68.17
2019-02-26T00:29:55.208Z,69.25
2019-02-26T00:30:44.571Z,69.65
2019-02-26T00:31:52.579Z,69.57
2019-02-26T00:32:45.066Z,69.42
2019-02-26T00:33:44.840Z,70.1
2019-02-26T00:34:44.758Z,70.74
2019-02-26T00:35:50.347Z,71.1
2019-02-26T00:36:45.066Z,70.73
2019-02-26T00:37:55.675Z,70.13
2019-02-26T00:38:44.660Z,69.23
2019-02-26T00:39:51.688Z,69.6
2019-02-26T00:40:44.785Z,69.84
2019-02-26T00:41:44.670Z,70.05
2019-02-26T00:42:44.948Z,70.17
2019-02-26T00:43:44.589Z,70.15
2019-02-26T00:44:44.594Z,69.65
2019-02-26T00:45:44.680Z,69.3
2019-02-26T00:46:44.641Z,69.34
2019-02-26T00:47:46.430Z,69.91
2019-02-26T00:48:44.559Z,69.48
2019-02-26T00:49:53.536Z,68.71
2019-02-26T00:50:45.617Z,68.89
2019-02-26T00:51:52.892Z,68.81
2019-02-26T00:52:45.486Z,68.06
2019-02-26T00:53:44.629Z,69.55
2019-02-26T00:54:45.120Z,68.98
2019-02-26T00:55:44.900Z,68.51
2019-02-26T00:56:45.092Z,68.99
2019-02-26T00:57:45.122Z,69.31
2019-02-26T00:58:50.554Z,69.73
2019-02-26T00:59:48.228Z,69.66
2019-02-26T01:00:44.590Z,70.27
2019-02-26T01:01:54.368Z,70.25
2019-02-26T01:02:44.629Z,70.07
2019-02-26T01:03:52.019Z,69.65
2019-02-26T01:04:51.051Z,69.91
2019-02-26T01:05:45.641Z,69.84
2019-02-26T01:06:44.853Z,70.12
2019-02-26T01:07:54.350Z,69.66
2019-02-26T01:08:47.226Z,69.99
2019-02-26T01:09:44.506Z,70.61
2019-02-26T01:10:46.383Z,69.97
2019-02-26T01:11:51.818Z,69.33
2019-02-26T01:12:45.414Z,68.68
2019-02-26T01:13:44.799Z,68.45
2019-02-26T01:14:50.453Z,69.56
2019-02-26T01:15:44.579Z,69.35
2019-02-26T01:16:48.440Z,69.57
2019-02-26T01:17:45.032Z,69.63
2019-02-26T01:18:53.139Z,69.25
2019-02-26T01:19:44.624Z,69.9
2019-02-26T01:20:55.242Z,68.71
2019-02-26T01:21:44.515Z,70.07
2019-02-26T01:22:45.741Z,69.82
2019-02-26T01:23:44.616Z,69.89
2019-02-26T01:24:44.503Z,69.76
2019-02-26T01:25:44.775Z,69.79
2019-02-26T01:26:44.887Z,69.88
2019-02-26T01:27:53.247Z,70.11
2019-02-26T01:28:56.003Z,69.8
2019-02-26T01:29:55.764Z,70.08
2019-02-26T01:30:45.391Z,69.21
2019-02-26T01:31:45.156Z,69.56
2019-02-26T01:32:44.823Z,69.32
2019-02-26T01:33:52.873Z,68.81
2019-02-26T01:34:49.609Z,68.25
2019-02-26T01:35:44.969Z,68.44
2019-02-26T01:36:49.783Z,69.55
2019-02-26T01:37:44.770Z,70.15
2019-02-26T01:38:53.132Z,69.55
2019-02-26T01:39:53.560Z,70.54
2019-02-26T01:40:55.949Z,71.36
2019-02-26T01:41:56.047Z,71.62
2019-02-26T01:42:57.398Z,71.01
2019-02-26T01:43:44.324Z,71.12
2019-02-26T01:44:44.764Z,70.65
2019-02-26T01:45:54.972Z,70.71
2019-02-26T01:46:44.721Z,70.38
2019-02-26T01:47:52.760Z,70.32
2019-02-26T01:48:44.455Z,70.15
2019-02-26T01:49:51.216Z,69.77
2019-02-26T01:50:44.759Z,70.67
2019-02-26T01:51:53.881Z,71.04
2019-02-26T01:52:45.392Z,70.99
2019-02-26T01:53:53.652Z,71.47
2019-02-26T01:54:44.880Z,71.95
2019-02-26T01:55:50.625Z,71.66
2019-02-26T01:56:45.567Z,70.97
2019-02-26T01:57:45.089Z,70.68
2019-02-26T01:58:44.993Z,70.52
2019-02-26T01:59:44.695Z,70.93
2019-02-26T02:00:44.493Z,71.26
2019-02-26T02:01:53.284Z,70.86
2019-02-26T02:02:44.561Z,71.19
2019-02-26T02:03:53.110Z,71.51
2019-02-26T02:04:45.073Z,70.52
2019-02-26T02:05:52.839Z,71.24
2019-02-26T02:06:44.576Z,71.06
2019-02-26T02:07:53.579Z,70.37
2019-02-26T02:08:52.887Z,69.84
2019-02-26T02:09:53.739Z,71.5
2019-02-26T02:10:44.799Z,71.9
2019-02-26T02:11:44.909Z,71.99
2019-02-26T02:12:44.439Z,71.91
2019-02-26T02:13:44.456Z,71.53
2019-02-26T02:14:44.690Z,71.2
2019-02-26T02:15:46.702Z,71.84
2019-02-26T02:16:44.721Z,70.82
2019-02-26T02:17:44.707Z,71.33
2019-02-26T02:18:55.314Z,70.94
2019-02-26T02:19:46.276Z,71.7
2019-02-26T02:20:44.493Z,71.34
2019-02-26T02:21:44.655Z,70.92
2019-02-26T02:22:46.301Z,70.99
2019-02-26T02:23:52.562Z,71.72
2019-02-26T02:24:51.744Z,71.31
2019-02-26T02:25:45.852Z,72.1
2019-02-26T02:26:55.071Z,71.68
2019-02-26T02:27:56.617Z,72.31
2019-02-26T02:28:44.687Z,72.61
2019-02-26T02:29:55.292Z,71.61
2019-02-26T02:30:44.613Z,72.71
2019-02-26T02:31:44.489Z,72.06
2019-02-26T02:32:57.398Z,72.54
2019-02-26T02:33:44.609Z,72.84
2019-02-26T02:34:44.538Z,72.53
2019-02-26T02:35:44.457Z,72.79
2019-02-26T02:36:45.295Z,73.21
2019-02-26T02:37:44.666Z,72.3
2019-02-26T02:38:44.763Z,72.82
2019-02-26T02:39:44.987Z,72.7
2019-02-26T02:40:54.962Z,72.45
2019-02-26T02:41:55.050Z,71.72
2019-02-26T02:42:49.612Z,72.37
2019-02-26T02:43:45.828Z,71.6
2019-02-26T02:44:52.925Z,71.8
2019-02-26T02:45:44.579Z,72.39
2019-02-26T02:46:46.904Z,72.06
2019-02-26T02:47:44.716Z,72.32
2019-02-26T02:48:44.828Z,72.21
2019-02-26T02:49:44.656Z,72.02
2019-02-26T02:50:44.842Z,72.45
2019-02-26T02:51:44.392Z,72
2019-02-26T02:52:45.499Z,72.19
2019-02-26T02:53:56.125Z,72.66
2019-02-26T02:54:51.946Z,71.81
2019-02-26T02:55:51.712Z,72.46
2019-02-26T02:56:44.882Z,72.57
2019-02-26T02:57:55.737Z,72.11
2019-02-26T02:58:51.859Z,72.37
2019-02-26T02:59:45.411Z,71.96
2019-02-26T03:00:54.816Z,71.23
2019-02-26T03:01:57.078Z,71.35
2019-02-26T03:02:55.648Z,71.51
2019-02-26T03:03:55.435Z,71.94
2019-02-26T03:04:45.356Z,72.31
2019-02-26T03:05:46.125Z,72.53
2019-02-26T03:06:44.749Z,72.52
2019-02-26T03:07:56.170Z,71.73
2019-02-26T03:08:52.954Z,72.39
2019-02-26T03:09:46.062Z,71.68
2019-02-26T03:10:45.200Z,72.22
2019-02-26T03:11:55.009Z,72.27
2019-02-26T03:12:59.776Z,72.93
2019-02-26T03:13:53.789Z,72.84
2019-02-26T03:14:44.725Z,72.71
2019-02-26T03:15:44.466Z,72.58
2019-02-26T03:16:53.530Z,72.42
2019-02-26T03:17:44.490Z,72.67
2019-02-26T03:18:44.517Z,72.68
2019-02-26T03:19:44.414Z,72.34
2019-02-26T03:20:44.564Z,72.7
2019-02-26T03:21:53.170Z,73.02
2019-02-26T03:22:49.382Z,72.78
2019-02-26T03:23:45.839Z,72.82
2019-02-26T03:24:45.252Z,73.27
2019-02-26T03:25:52.933Z,73.02
2019-02-26T03:26:44.673Z,72.59
2019-02-26T03:27:44.695Z,72.79
2019-02-26T03:28:53.498Z,72.68
2019-02-26T03:29:55.308Z,72.72
2019-02-26T03:30:45.005Z,73.04
2019-02-26T03:31:55.727Z,72.53
2019-02-26T03:33:04.070Z,72.97
2019-02-26T03:33:44.580Z,72.87
2019-02-26T03:34:44.393Z,72.92
2019-02-26T03:35:44.472Z,72.83
2019-02-26T03:36:46.019Z,72.97
2019-02-26T03:37:44.542Z,73.53
2019-02-26T03:38:54.827Z,72.83
2019-02-26T03:39:44.456Z,73.2
2019-02-26T03:40:45.390Z,73.78
2019-02-26T03:41:53.467Z,73.79
2019-02-26T03:42:46.567Z,73.53
2019-02-26T03:43:44.443Z,74.06
2019-02-26T03:44:47.210Z,73.45
2019-02-26T03:45:48.302Z,73.83
2019-02-26T03:46:45.261Z,73.24
2019-02-26T03:47:44.298Z,73.74
2019-02-26T03:48:44.816Z,73.62
2019-02-26T03:49:45.181Z,73.3
2019-02-26T03:50:44.881Z,73.85
2019-02-26T03:51:44.614Z,73.88
2019-02-26T03:52:44.652Z,74.1
2019-02-26T03:53:44.442Z,74.34
2019-02-26T03:54:50.900Z,74.24
2019-02-26T03:55:44.769Z,74.13
2019-02-26T03:56:44.553Z,73.97
2019-02-26T03:57:56.922Z,74.06
2019-02-26T03:58:44.467Z,74.2
2019-02-26T03:59:44.403Z,74.45
2019-02-26T04:00:47.098Z,74.81
2019-02-26T04:01:44.474Z,74.69
2019-02-26T04:02:52.282Z,74.95
2019-02-26T04:03:45.166Z,74.97
2019-02-26T04:04:57.941Z,74.95
2019-02-26T04:05:44.726Z,74.97
2019-02-26T04:06:47.292Z,75.25
2019-02-26T04:07:44.948Z,75.22
2019-02-26T04:08:53.800Z,74.92
2019-02-26T04:09:55.844Z,75.25
2019-02-26T04:10:55.419Z,75.11
2019-02-26T04:11:55.502Z,74.91
2019-02-26T04:12:55.141Z,75.34
2019-02-26T04:13:54.503Z,75.1
2019-02-26T04:14:44.482Z,75.05
2019-02-26T04:15:44.335Z,75.55
2019-02-26T04:16:44.245Z,75.61
2019-02-26T04:17:44.396Z,75.6
2019-02-26T04:18:44.504Z,75.33
2019-02-26T04:19:44.821Z,75.53
2019-02-26T04:20:46.100Z,75.8
2019-02-26T04:21:44.343Z,75.98
2019-02-26T04:22:57.027Z,75.8
2019-02-26T04:23:46.844Z,75.68
2019-02-26T04:24:44.239Z,75.8
2019-02-26T04:25:44.364Z,76.06
2019-02-26T04:26:44.966Z,75.94
2019-02-26T04:27:44.339Z,76.62
2019-02-26T04:28:47.774Z,76.19
2019-02-26T04:29:49.515Z,75.93
2019-02-26T04:30:52.574Z,76.06
2019-02-26T04:31:54.229Z,75.53
2019-02-26T04:32:49.119Z,75.89
2019-02-26T04:33:44.234Z,75.72
2019-02-26T04:34:44.358Z,75.87
2019-02-26T04:35:55.425Z,75.72
2019-02-26T04:36:47.259Z,75.34
2019-02-26T04:37:44.510Z,75.62
2019-02-26T04:38:53.708Z,75.55
2019-02-26T04:39:47.835Z,74.59
2019-02-26T04:40:44.290Z,75.1
2019-02-26T04:41:44.275Z,75.35
2019-02-26T04:42:46.290Z,74.89
2019-02-26T04:43:44.244Z,74.65
2019-02-26T04:44:58.147Z,74.56
2019-02-26T04:45:44.373Z,74.32
2019-02-26T04:46:44.403Z,74.19
2019-02-26T04:47:57.480Z,74.72
2019-02-26T04:48:44.496Z,73.85
2019-02-26T04:49:44.710Z,73.8
2019-02-26T04:50:44.889Z,74.59
2019-02-26T04:51:50.659Z,73.98
2019-02-26T04:52:44.299Z,73.59
2019-02-26T04:53:44.666Z,73.72
2019-02-26T04:54:44.672Z,74.79
2019-02-26T04:55:45.108Z,74.74
2019-02-26T04:56:51.117Z,74.06
2019-02-26T04:57:54.238Z,73.62
2019-02-26T04:58:47.970Z,74.69
2019-02-26T04:59:44.449Z,75.22
2019-02-26T05:00:45.506Z,75.41
2019-02-26T05:01:55.639Z,75.55
2019-02-26T05:02:44.214Z,74.92
2019-02-26T05:03:44.242Z,74.65
2019-02-26T05:04:46.073Z,74.19
2019-02-26T05:05:44.206Z,73.61
2019-02-26T05:06:44.503Z,73.84
2019-02-26T05:07:50.136Z,74.27
2019-02-26T05:08:44.510Z,74.01
2019-02-26T05:09:56.932Z,74.07
2019-02-26T05:10:52.509Z,73.75
2019-02-26T05:11:44.300Z,73.19
2019-02-26T05:12:44.268Z,73.28
2019-02-26T05:13:45.070Z,74.13
2019-02-26T05:14:44.285Z,74.78
2019-02-26T05:15:44.498Z,74.89
2019-02-26T05:16:44.221Z,75.4
2019-02-26T05:17:44.399Z,75.74
2019-02-26T05:18:55.058Z,75.61
2019-02-26T05:19:51.946Z,74.77
2019-02-26T05:20:48.725Z,75.22
2019-02-26T05:21:46.029Z,75.57
2019-02-26T05:22:44.346Z,75.46
2019-02-26T05:23:55.096Z,75.01
2019-02-26T05:24:52.960Z,74.33
2019-02-26T05:25:45.095Z,74.46
2019-02-26T05:26:44.386Z,73.96
2019-02-26T05:27:51.107Z,74.75
2019-02-26T05:28:51.724Z,75.05
2019-02-26T05:29:54.788Z,75.1
2019-02-26T05:30:51.478Z,74.87
2019-02-26T05:31:44.314Z,74.92
2019-02-26T05:32:44.299Z,75.32
2019-02-26T05:33:54.598Z,75.02
2019-02-26T05:34:50.994Z,75.6
2019-02-26T05:35:51.702Z,75.61
2019-02-26T05:36:46.632Z,75.6
2019-02-26T05:37:44.396Z,75.55
2019-02-26T05:38:44.401Z,75.38
2019-02-26T05:39:54.806Z,75.15
2019-02-26T05:40:54.043Z,75.19
2019-02-26T05:41:45.999Z,75.58
2019-02-26T05:42:44.641Z,75.63
2019-02-26T05:43:58.759Z,75.8
2019-02-26T05:44:44.447Z,75.62
2019-02-26T05:45:44.218Z,75.83
2019-02-26T05:46:56.150Z,76.2
2019-02-26T05:47:58.012Z,76.85
2019-02-26T05:48:51.240Z,77.16
2019-02-26T05:49:46.115Z,77.19
2019-02-26T05:50:44.989Z,77.25
2019-02-26T05:51:46.018Z,77.02
2019-02-26T05:52:44.236Z,76.85
2019-02-26T05:53:44.621Z,76.97
2019-02-26T05:54:44.213Z,76.76
2019-02-26T05:55:55.639Z,76.91
2019-02-26T05:56:50.122Z,76.72
2019-02-26T05:57:44.439Z,76.77
2019-02-26T05:58:47.335Z,76.48
2019-02-26T05:59:44.197Z,76.2
2019-02-26T06:00:44.561Z,76.43
2019-02-26T06:01:55.344Z,76.05
2019-02-26T06:02:51.182Z,76.23
2019-02-26T06:03:52.159Z,76.68
2019-02-26T06:04:46.992Z,76.64
2019-02-26T06:05:55.642Z,76.5
2019-02-26T06:06:44.380Z,76.36
2019-02-26T06:07:44.389Z,75.89
2019-02-26T06:08:44.407Z,75.64
2019-02-26T06:09:53.268Z,75.65
2019-02-26T06:10:44.517Z,75.58
2019-02-26T06:11:50.277Z,76.48
2019-02-26T06:12:46.890Z,76.53
2019-02-26T06:13:44.378Z,76.63
2019-02-26T06:14:44.344Z,76.73
2019-02-26T06:15:44.237Z,76.74
2019-02-26T06:16:55.840Z,77.39
2019-02-26T06:17:52.885Z,77.84
2019-02-26T06:18:53.921Z,77.66
2019-02-26T06:19:45.312Z,77.38
2019-02-26T06:20:45.959Z,77.67
2019-02-26T06:21:56.095Z,77.8
2019-02-26T06:22:44.971Z,77.78
2019-02-26T06:23:44.221Z,77.57
2019-02-26T06:24:44.301Z,77.45
2019-02-26T06:25:44.192Z,77.34
2019-02-26T06:26:45.732Z,77.65
2019-02-26T06:27:44.636Z,77.94
2019-02-26T06:28:52.772Z,77.88
2019-02-26T06:29:44.440Z,77.59
2019-02-26T06:30:44.976Z,77.34
2019-02-26T06:31:49.584Z,76.81
2019-02-26T06:32:45.035Z,76.5
2019-02-26T06:33:47.998Z,76.65
2019-02-26T06:34:43.908Z,76.55
2019-02-26T06:35:43.913Z,76.98
2019-02-26T06:36:51.077Z,77.27
2019-02-26T06:37:43.909Z,77.09
2019-02-26T06:38:43.896Z,76.19
2019-02-26T06:39:44.254Z,76.05
2019-02-26T06:40:51.511Z,75.89
2019-02-26T06:41:51.305Z,75.51
2019-02-26T06:42:44.155Z,76.21
2019-02-26T06:43:55.145Z,75.51
2019-02-26T06:44:51.512Z,75.39
2019-02-26T06:45:47.954Z,75.31
2019-02-26T06:46:44.171Z,75.44
2019-02-26T06:47:53.954Z,76.17
2019-02-26T06:48:44.356Z,75.82
2019-02-26T06:49:52.557Z,75.52
2019-02-26T06:50:44.253Z,76.79
2019-02-26T06:51:50.361Z,76.64
2019-02-26T06:52:50.927Z,76.83
2019-02-26T06:53:54.733Z,76.65
2019-02-26T06:54:59.984Z,76.52
2019-02-26T06:55:44.441Z,76.74
2019-02-26T06:56:52.489Z,77.1
2019-02-26T06:57:55.211Z,77.16
2019-02-26T06:58:47.634Z,77.32
2019-02-26T06:59:44.031Z,77.73
2019-02-26T07:00:55.193Z,77.88
2019-02-26T07:01:44.034Z,77.92
2019-02-26T07:02:46.509Z,78.12
2019-02-26T07:03:44.123Z,78.21
2019-02-26T07:04:44.140Z,78.3
2019-02-26T07:05:46.701Z,78.54
2019-02-26T07:06:44.149Z,78.73
2019-02-26T07:07:45.880Z,78.75
2019-02-26T07:08:53.535Z,78.8
2019-02-26T07:09:44.296Z,78.77
2019-02-26T07:10:44.396Z,78.54
2019-02-26T07:11:44.825Z,78.59
2019-02-26T07:12:50.688Z,78.18
2019-02-26T07:13:46.621Z,78.15
2019-02-26T07:14:55.315Z,77.41
2019-02-26T07:15:46.055Z,77.75
2019-02-26T07:16:44.226Z,77.69
2019-02-26T07:17:46.489Z,77.26
2019-02-26T07:18:44.062Z,77.04
2019-02-26T07:19:44.964Z,76.58
2019-02-26T07:20:55.725Z,77.37
2019-02-26T07:21:53.028Z,77.29
2019-02-26T07:22:51.759Z,77.61
2019-02-26T07:23:43.988Z,76.85
2019-02-26T07:24:53.402Z,77.59
2019-02-26T07:25:44.356Z,77.52
2019-02-26T07:26:48.486Z,77.52
2019-02-26T07:27:44.487Z,77.57
2019-02-26T07:28:50.911Z,77.66
2019-02-26T07:29:52.520Z,77.65
2019-02-26T07:30:47.146Z,77.82
2019-02-26T07:31:44.337Z,77.79
2019-02-26T07:32:48.470Z,77.74
2019-02-26T07:33:44.239Z,77.57
2019-02-26T07:34:52.245Z,77.33
2019-02-26T07:35:44.435Z,76.85
2019-02-26T07:36:52.625Z,77.01
2019-02-26T07:37:44.146Z,76.28
2019-02-26T07:38:56.384Z,76.58
2019-02-26T07:39:51.618Z,77.28
2019-02-26T07:40:44.697Z,77.42
2019-02-26T07:41:51.221Z,76.91
2019-02-26T07:42:49.743Z,76.29
2019-02-26T07:43:54.119Z,76.06
2019-02-26T07:44:44.302Z,76.75
2019-02-26T07:45:44.540Z,76.24
2019-02-26T07:46:45.843Z,75.56
2019-02-26T07:47:45.463Z,76.5
2019-02-26T07:48:57.079Z,76.7
2019-02-26T07:49:44.826Z,76.72
2019-02-26T07:50:50.905Z,76.67
2019-02-26T07:51:44.990Z,76.92
2019-02-26T07:52:54.433Z,76.03
2019-02-26T07:53:55.943Z,76.09
2019-02-26T07:54:51.998Z,76.24
2019-02-26T07:55:44.337Z,76.57
2019-02-26T07:56:43.947Z,76.98
2019-02-26T07:57:53.017Z,77.02
2019-02-26T07:58:44.408Z,76.88
2019-02-26T07:59:50.370Z,76.67
2019-02-26T08:00:52.438Z,76.73
2019-02-26T08:01:49.824Z,75.55
2019-02-26T08:02:43.941Z,75.35
2019-02-26T08:03:52.772Z,75.34
2019-02-26T08:04:44.042Z,75.04
2019-02-26T08:05:44.160Z,75.59
2019-02-26T08:06:43.943Z,75.26
2019-02-26T08:07:53.450Z,76.35
2019-02-26T08:08:49.073Z,76.16
2019-02-26T08:09:44.169Z,75.71
2019-02-26T08:10:53.031Z,75.18
2019-02-26T08:11:49.260Z,75.79
2019-02-26T08:12:44.169Z,76.07
2019-02-26T08:13:44.219Z,76.08
2019-02-26T08:14:50.255Z,75.45
2019-02-26T08:15:44.414Z,75.92
2019-02-26T08:16:44.115Z,75.47
2019-02-26T08:17:57.904Z,74.84
2019-02-26T08:18:44.144Z,74.96
2019-02-26T08:19:49.580Z,74.83
2019-02-26T08:20:44.026Z,75.95
2019-02-26T08:21:52.613Z,76.12
2019-02-26T08:22:43.947Z,76.19
2019-02-26T08:23:52.770Z,75.94
2019-02-26T08:24:52.774Z,75.27
2019-02-26T08:25:44.054Z,75.31
2019-02-26T08:26:49.825Z,75.96
2019-02-26T08:27:44.272Z,75.88
2019-02-26T08:28:48.339Z,75.77
2019-02-26T08:29:44.019Z,75.75
2019-02-26T08:30:52.353Z,75.73
2019-02-26T08:31:51.956Z,76.07
2019-02-26T08:32:56.217Z,75.76
2019-02-26T08:33:51.912Z,75.88
2019-02-26T08:34:45.755Z,75.33
2019-02-26T08:35:44.659Z,75.43
2019-02-26T08:36:47.010Z,75.62
2019-02-26T08:37:44.076Z,75.18
2019-02-26T08:38:45.741Z,74.78
2019-02-26T08:39:44.167Z,75.23
2019-02-26T08:40:44.197Z,75.05
2019-02-26T08:41:44.486Z,74.71
2019-02-26T08:42:44.404Z,74.35
2019-02-26T08:43:53.900Z,73.99
2019-02-26T08:44:53.563Z,74.71
2019-02-26T08:45:45.729Z,74.4
2019-02-26T08:46:49.131Z,74.57
2019-02-26T08:47:44.016Z,74.31
2019-02-26T08:48:50.961Z,74.22
2019-02-26T08:49:47.680Z,73.86
2019-02-26T08:50:46.561Z,73.36
2019-02-26T08:51:44.183Z,73.41
2019-02-26T08:52:54.984Z,72.59
2019-02-26T08:53:51.787Z,72.61
2019-02-26T08:54:44.069Z,72.62
2019-02-26T08:55:44.064Z,73.44
2019-02-26T08:56:43.993Z,73.1
2019-02-26T08:57:44.594Z,72.25
2019-02-26T08:58:45.588Z,72.62
2019-02-26T08:59:52.058Z,72.42
2019-02-26T09:00:44.155Z,72.43
2019-02-26T09:01:44.319Z,72.65
2019-02-26T09:02:56.536Z,72.26
2019-02-26T09:03:44.029Z,71.51
2019-02-26T09:04:48.059Z,71.57
2019-02-26T09:05:44.238Z,71.88
2019-02-26T09:06:43.995Z,72.65
2019-02-26T09:07:50.763Z,72.84
2019-02-26T09:08:44.698Z,72.46
2019-02-26T09:09:52.072Z,72.18
2019-02-26T09:10:48.836Z,71.89
2019-02-26T09:11:45.115Z,72.19
2019-02-26T09:12:52.051Z,72.07
2019-02-26T09:13:44.153Z,71.91
2019-02-26T09:14:50.154Z,71.45
2019-02-26T09:15:44.529Z,70.92
2019-02-26T09:16:55.000Z,71.24
2019-02-26T09:17:44.696Z,70.83
2019-02-26T09:18:43.645Z,70.57
2019-02-26T09:19:44.261Z,70.08
2019-02-26T09:20:45.684Z,69.78
2019-02-26T09:21:54.308Z,69.73
2019-02-26T09:22:55.895Z,70
2019-02-26T09:23:56.980Z,69.41
2019-02-26T09:24:44.167Z,69.64
2019-02-26T09:25:57.647Z,69.54
2019-02-26T09:26:44.173Z,69.33
2019-02-26T09:27:44.300Z,69.1
2019-02-26T09:28:54.381Z,69.08
2019-02-26T09:29:51.588Z,69.06
2019-02-26T09:30:44.100Z,69.23
2019-02-26T09:31:45.655Z,69.21
2019-02-26T09:32:45.173Z,68.89
2019-02-26T09:33:45.725Z,68.66
2019-02-26T09:34:44.039Z,68.27
2019-02-26T09:35:51.931Z,69.03
2019-02-26T09:36:55.594Z,68.23
2019-02-26T09:37:52.591Z,68.22
2019-02-26T09:38:51.564Z,68.28
2019-02-26T09:39:44.054Z,67.82
2019-02-26T09:40:52.342Z,68.09
2019-02-26T09:41:45.768Z,68.29
2019-02-26T09:42:57.113Z,67.66
2019-02-26T09:43:48.321Z,67.58
2019-02-26T09:44:44.871Z,67.94
2019-02-26T09:45:50.970Z,67.05
2019-02-26T09:46:44.272Z,67.24
2019-02-26T09:47:54.340Z,66.47
2019-02-26T09:48:46.257Z,66.78
2019-02-26T09:49:43.789Z,66.46
2019-02-26T09:50:48.880Z,66.13
2019-02-26T09:51:44.080Z,66.26
2019-02-26T09:52:52.761Z,66.02
2019-02-26T09:53:44.286Z,66.53
2019-02-26T09:54:52.901Z,66.74
2019-02-26T09:55:44.072Z,66.52
2019-02-26T09:56:44.067Z,66.76
2019-02-26T09:57:44.279Z,66.07
2019-02-26T09:58:51.059Z,65.13
2019-02-26T09:59:43.742Z,65.25
2019-02-26T10:00:54.155Z,65.26
2019-02-26T10:01:43.777Z,65.36
2019-02-26T10:02:51.997Z,64.81
2019-02-26T10:03:43.773Z,65.45
2019-02-26T10:04:51.785Z,64.19
2019-02-26T10:05:55.092Z,64.78
2019-02-26T10:06:47.657Z,64.02
2019-02-26T10:07:44.146Z,63.8
2019-02-26T10:08:52.837Z,64.2
2019-02-26T10:09:48.699Z,63.05
2019-02-26T10:10:45.352Z,63.54
2019-02-26T10:11:51.752Z,63.4
2019-02-26T10:12:44.094Z,62.62
2019-02-26T10:13:51.365Z,62.99
2019-02-26T10:14:43.918Z,62.74
2019-02-26T10:15:45.002Z,62.42
2019-02-26T10:16:51.851Z,62.71
2019-02-26T10:17:45.368Z,62.62
2019-02-26T10:18:52.315Z,61.77
2019-02-26T10:19:43.808Z,61.94
2019-02-26T10:20:52.229Z,62.04
2019-02-26T10:21:45.117Z,60.53
2019-02-26T10:22:47.306Z,60.06
2019-02-26T10:23:54.685Z,59.39
2019-02-26T10:24:45.571Z,59.17
2019-02-26T10:25:45.410Z,58.99
2019-02-26T10:26:45.562Z,58.77
2019-02-26T10:27:47.971Z,59.57
2019-02-26T10:29:04.287Z,59.09
2019-02-26T10:29:50.041Z,59.49
2019-02-26T10:30:44.201Z,59.38
2019-02-26T10:31:43.723Z,58.92
2019-02-26T10:32:47.147Z,58.68
2019-02-26T10:33:50.919Z,58.61
2019-02-26T10:34:43.989Z,58.17
2019-02-26T10:35:50.037Z,57.49
2019-02-26T10:36:51.994Z,57.26
2019-02-26T10:37:44.135Z,57.15
2019-02-26T10:38:43.982Z,56.76
2019-02-26T10:39:54.852Z,56.64
2019-02-26T10:40:59.756Z,57.92
2019-02-26T10:41:46.893Z,57.92
2019-02-26T10:42:43.705Z,57
2019-02-26T10:43:44.065Z,56.26
2019-02-26T10:44:44.048Z,55.23
2019-02-26T10:45:54.769Z,56.42
2019-02-26T10:46:44.671Z,56.57
2019-02-26T10:47:44.315Z,56.14
2019-02-26T10:48:52.852Z,55.63
2019-02-26T10:49:54.457Z,55.92
2019-02-26T10:50:52.116Z,55.67
2019-02-26T10:51:44.078Z,56.14
2019-02-26T10:52:43.730Z,55.55
2019-02-26T10:53:44.142Z,55.04
2019-02-26T10:54:46.774Z,55.04
2019-02-26T10:55:43.802Z,54.7
2019-02-26T10:56:45.074Z,54.96
2019-02-26T10:57:44.076Z,54.92
2019-02-26T10:58:45.527Z,55.43
2019-02-26T10:59:45.604Z,55.44
2019-02-26T11:00:44.317Z,54.95
2019-02-26T11:01:44.036Z,54.84
2019-02-26T11:02:53.984Z,54.67
2019-02-26T11:03:54.529Z,54.9
2019-02-26T11:04:55.391Z,53.91
2019-02-26T11:05:52.451Z,53.72
2019-02-26T11:06:47.144Z,53.64
2019-02-26T11:07:43.795Z,53.17
2019-02-26T11:08:44.023Z,53.76
2019-02-26T11:09:53.541Z,54.17
2019-02-26T11:10:52.430Z,53.42
2019-02-26T11:11:43.752Z,53.91
2019-02-26T11:12:53.435Z,52.86
2019-02-26T11:13:53.916Z,52.84
2019-02-26T11:14:44.446Z,52.63
2019-02-26T11:15:44.020Z,52.61
2019-02-26T11:16:43.768Z,53.18
2019-02-26T11:17:53.061Z,52.76
2019-02-26T11:18:47.864Z,53.06
2019-02-26T11:19:43.823Z,53.27
2019-02-26T11:20:53.451Z,53.46
2019-02-26T11:21:43.623Z,53.21
2019-02-26T11:22:51.599Z,52.69
2019-02-26T11:23:46.576Z,52.48
2019-02-26T11:24:44.071Z,52.82
2019-02-26T11:25:43.681Z,52.33
2019-02-26T11:26:44.507Z,52.05
2019-02-26T11:27:48.636Z,52.66
2019-02-26T11:28:48.215Z,52.81
2019-02-26T11:29:43.830Z,52.34
2019-02-26T11:30:51.638Z,52.25
2019-02-26T11:31:49.846Z,51.97
2019-02-26T11:32:45.349Z,51.94
2019-02-26T11:33:44.001Z,51.92
2019-02-26T11:34:43.921Z,51.75
2019-02-26T11:35:51.599Z,51.51
2019-02-26T11:36:43.946Z,51.36
2019-02-26T11:37:53.133Z,51.18
2019-02-26T11:38:47.255Z,50.62
2019-02-26T11:39:43.650Z,50.27
2019-02-26T11:40:43.627Z,50.46
2019-02-26T11:41:43.703Z,51.01
2019-02-26T11:42:51.390Z,50.62
2019-02-26T11:43:44.062Z,50.82
2019-02-26T11:44:43.754Z,50.45
2019-02-26T11:45:45.473Z,49.94
2019-02-26T11:46:53.345Z,50.14
2019-02-26T11:47:44.004Z,50.12
2019-02-26T11:48:52.404Z,49.9
2019-02-26T11:49:46.918Z,50.39
2019-02-26T11:50:45.278Z,49.96
2019-02-26T11:51:43.933Z,49.96
2019-02-26T11:52:44.014Z,49.13
2019-02-26T11:53:46.407Z,49.45
2019-02-26T11:54:44.806Z,49.6
2019-02-26T11:55:45.459Z,48.65
2019-02-26T11:56:52.580Z,48.37
2019-02-26T11:57:49.946Z,48.41
2019-02-26T11:58:43.870Z,48.64
2019-02-26T11:59:43.634Z,48.84
2019-02-26T12:00:51.125Z,47.8
2019-02-26T12:01:43.647Z,47.68
2019-02-26T12:02:44.039Z,47.83
2019-02-26T12:03:44.160Z,47.94
2019-02-26T12:04:43.919Z,47.7
2019-02-26T12:05:44.564Z,47.35
2019-02-26T12:06:43.727Z,47.52
2019-02-26T12:07:43.582Z,47.51
2019-02-26T12:08:50.130Z,46.19
2019-02-26T12:09:44.642Z,46.46
2019-02-26T12:10:43.854Z,46.7
2019-02-26T12:11:43.967Z,47.06
2019-02-26T12:12:43.790Z,47.19
2019-02-26T12:13:53.006Z,47.63
2019-02-26T12:14:48.738Z,47.16
2019-02-26T12:15:43.768Z,46.72
2019-02-26T12:16:44.196Z,46.31
2019-02-26T12:17:43.597Z,46
2019-02-26T12:18:47.143Z,46.32
2019-02-26T12:19:43.750Z,46.37
2019-02-26T12:20:48.955Z,46.03
2019-02-26T12:21:43.593Z,46.45
2019-02-26T12:22:52.264Z,46.21
2019-02-26T12:23:46.937Z,46.04
2019-02-26T12:24:43.710Z,46.28
2019-02-26T12:25:44.012Z,46.31
2019-02-26T12:26:54.185Z,46.67
2019-02-26T12:27:48.352Z,45.91
2019-02-26T12:28:44.232Z,46.07
2019-02-26T12:29:54.366Z,46.14
2019-02-26T12:30:46.982Z,45.85
2019-02-26T12:31:45.421Z,46.01
2019-02-26T12:32:54.654Z,45.65
2019-02-26T12:33:45.396Z,45.5
2019-02-26T12:34:51.563Z,45.57
2019-02-26T12:35:44.016Z,45.46
2019-02-26T12:36:44.316Z,45.36
2019-02-26T12:37:55.810Z,45.17
2019-02-26T12:38:44.154Z,45.47
2019-02-26T12:39:54.762Z,45.76
2019-02-26T12:40:53.526Z,46.3
2019-02-26T12:41:48.285Z,45.41
2019-02-26T12:42:43.857Z,45.31
2019-02-26T12:43:46.631Z,45.13
2019-02-26T12:44:45.683Z,45.46
2019-02-26T12:45:44.264Z,45.81
2019-02-26T12:46:53.661Z,44.35
2019-02-26T12:47:55.070Z,44.8
2019-02-26T12:48:50.493Z,44.29
2019-02-26T12:49:45.328Z,44.14
2019-02-26T12:50:43.829Z,44.26
2019-02-26T12:51:43.823Z,44.53
2019-02-26T12:52:53.829Z,44.55
2019-02-26T12:53:50.239Z,44.17
2019-02-26T12:54:43.660Z,44.25
2019-02-26T12:55:43.969Z,43.56